createdAt,value
2023-02-01T00:00:01.654Z,9.9
2023-02-01T00:05:01.156Z,9.4
2023-02-01T00:10:00.872Z,8.0
2023-02-01T00:15:01.227Z,7.4
2023-02-01T00:20:00.825Z,7.0
2023-02-01T00:25:00.874Z,6.8
2023-02-01T00:30:01.734Z,6.5
2023-02-01T00:35:00.849Z,6.9
2023-02-01T00:40:01.245Z,7.7
2023-02-01T00:45:01.523Z,7.7
2023-02-01T00:50:00.867Z,8.0
2023-02-01T00:55:00.868Z,7.3
2023-02-01T01:00:07.541Z,7.5
2023-02-01T01:05:05.865Z,7.2
2023-02-01T01:10:05.836Z,7.1
2023-02-01T01:15:01.368Z,6.5
2023-02-01T01:20:00.919Z,7.2
2023-02-01T01:25:00.860Z,6.8
2023-02-01T01:30:01.526Z,7.0
2023-02-01T01:35:00.837Z,6.9
2023-02-01T01:40:00.841Z,7.2
2023-02-01T01:45:05.623Z,7.2
2023-02-01T01:50:01.634Z,7.4
2023-02-01T01:55:05.863Z,6.7
2023-02-01T02:00:06.929Z,6.8
2023-02-01T02:05:00.872Z,6.6
2023-02-01T02:10:01.580Z,6.4
2023-02-01T02:15:01.641Z,5.9
2023-02-01T02:20:00.875Z,5.4
2023-02-01T02:25:05.888Z,5.1
2023-02-01T02:30:18.385Z,4.6
2023-02-01T02:35:05.832Z,4.4
2023-02-01T02:40:00.878Z,4.7
2023-02-01T02:45:14.566Z,5.5
2023-02-01T02:50:00.835Z,6.5
2023-02-01T02:55:05.835Z,7.2
2023-02-01T03:00:10.562Z,7.8
2023-02-01T03:05:00.869Z,7.3
2023-02-01T03:10:00.848Z,7.4
2023-02-01T03:15:07.380Z,7.0
2023-02-01T03:20:00.843Z,6.7
2023-02-01T03:25:00.884Z,6.8
2023-02-01T03:30:04.453Z,7.5
2023-02-01T03:35:00.826Z,7.0
2023-02-01T03:45:12.286Z,7.3
2023-02-01T03:50:00.848Z,6.9
2023-02-01T03:55:02.253Z,7.0
2023-02-01T04:00:10.362Z,7.2
2023-02-01T04:05:05.871Z,6.6
2023-02-01T04:10:00.850Z,6.1
2023-02-01T04:15:01.257Z,5.8
2023-02-01T04:20:00.844Z,4.9
2023-02-01T04:25:05.999Z,4.8
2023-02-01T04:30:06.850Z,5.0
2023-02-01T04:35:05.847Z,5.2
2023-02-01T04:40:05.853Z,5.8
2023-02-01T04:45:01.744Z,6.1
2023-02-01T04:50:00.919Z,6.6
2023-02-01T04:55:05.858Z,6.5
2023-02-01T05:00:07.189Z,6.4
2023-02-01T05:05:05.866Z,6.3
2023-02-01T05:15:02.903Z,6.6
2023-02-01T05:20:00.893Z,7.2
2023-02-01T05:25:00.902Z,7.4
2023-02-01T05:30:07.616Z,7.6
2023-02-01T05:35:00.852Z,7.5
2023-02-01T05:40:05.942Z,6.4
2023-02-01T05:45:01.276Z,6.4
2023-02-01T05:55:00.869Z,6.2
2023-02-01T06:00:07.377Z,6.5
2023-02-01T06:05:00.857Z,7.3
2023-02-01T06:10:05.871Z,6.9
2023-02-01T06:15:01.559Z,7.0
2023-02-01T06:20:05.906Z,6.9
2023-02-01T06:25:05.864Z,7.0
2023-02-01T06:30:01.301Z,6.8
2023-02-01T06:35:05.874Z,6.7
2023-02-01T06:40:02.711Z,7.3
2023-02-01T06:45:01.365Z,7.8
2023-02-01T06:55:00.895Z,9.1
2023-02-01T07:00:02.929Z,9.4
2023-02-01T07:05:06.381Z,8.8
2023-02-01T07:10:02.392Z,8.2
2023-02-01T07:15:01.713Z,7.6
2023-02-01T07:20:02.488Z,6.6
2023-02-01T07:25:02.815Z,6.5
2023-02-01T07:30:07.299Z,6.4
2023-02-01T07:35:05.897Z,6.7
2023-02-01T07:40:00.958Z,6.9
2023-02-01T07:45:21.166Z,6.6
2023-02-01T07:50:05.873Z,6.8
2023-02-01T07:55:00.914Z,6.5
2023-02-01T08:00:06.771Z,6.5
2023-02-01T08:05:05.944Z,6.4
2023-02-01T08:10:00.887Z,6.6
2023-02-01T08:15:06.750Z,7.4
2023-02-01T08:20:00.879Z,8.0
2023-02-01T08:25:00.881Z,9.2
2023-02-01T08:30:07.390Z,9.6
2023-02-01T08:35:00.969Z,10.1
2023-02-01T08:40:01.035Z,9.5
2023-02-01T08:45:06.947Z,9.7
2023-02-01T08:50:05.916Z,8.9
2023-02-01T08:55:00.916Z,9.0
2023-02-01T09:00:01.687Z,9.1
2023-02-01T09:05:05.890Z,8.7
2023-02-01T09:10:00.928Z,9.0
2023-02-01T09:15:02.099Z,8.4
2023-02-01T09:20:00.967Z,7.8
2023-02-01T09:30:02.881Z,7.6
2023-02-01T09:35:07.040Z,6.4
2023-02-01T09:40:00.901Z,5.9
2023-02-01T09:45:16.260Z,5.7
2023-02-01T09:55:06.778Z,5.4
2023-02-01T10:00:14.556Z,5.4
2023-02-01T10:05:01.734Z,5.8
2023-02-01T10:10:06.931Z,6.0
2023-02-01T10:20:00.929Z,7.0
2023-02-01T10:25:00.941Z,7.4
2023-02-01T10:30:22.643Z,7.9
2023-02-01T10:35:00.934Z,9.2
2023-02-01T10:40:05.931Z,10.7
2023-02-01T10:45:07.198Z,9.9
2023-02-01T10:50:21.856Z,11.1
2023-02-01T10:55:00.954Z,11.9
2023-02-01T11:00:03.138Z,11.2
2023-02-01T11:05:01.463Z,10.2
2023-02-01T11:10:01.098Z,9.8
2023-02-01T11:15:31.246Z,8.4
2023-02-01T11:20:00.925Z,7.4
2023-02-01T11:25:01.394Z,6.8
2023-02-01T11:30:02.726Z,6.9
2023-02-01T11:35:05.975Z,7.4
2023-02-01T11:40:01.044Z,7.8
2023-02-01T11:45:22.377Z,7.8
2023-02-01T11:55:00.977Z,8.2
2023-02-01T12:00:16.592Z,8.9
2023-02-01T12:05:00.924Z,8.0
2023-02-01T12:10:05.965Z,7.6
2023-02-01T12:15:21.487Z,7.6
2023-02-01T12:25:00.954Z,7.0
2023-02-01T12:30:16.358Z,7.4
2023-02-01T12:35:00.923Z,7.5
2023-02-01T12:45:21.413Z,7.0
2023-02-01T12:50:00.980Z,6.9
2023-02-01T12:55:01.989Z,6.5
2023-02-01T13:00:22.256Z,6.7
2023-02-01T13:05:05.945Z,6.3
2023-02-01T13:10:00.949Z,7.0
2023-02-01T13:15:21.093Z,7.1
2023-02-01T13:20:00.939Z,8.2
2023-02-01T13:25:01.041Z,8.0
2023-02-01T13:35:05.934Z,8.5
2023-02-01T13:40:05.950Z,8.2
2023-02-01T13:45:22.627Z,7.3
2023-02-01T13:50:00.944Z,7.9
2023-02-01T13:55:05.943Z,7.6
2023-02-01T14:00:08.988Z,6.8
2023-02-01T14:05:00.930Z,6.6
2023-02-01T14:10:00.955Z,6.9
2023-02-01T14:20:00.968Z,6.2
2023-02-01T14:25:05.942Z,6.8
2023-02-01T14:30:06.729Z,6.6
2023-02-01T14:35:00.949Z,5.9
2023-02-01T14:40:05.975Z,6.4
2023-02-01T14:45:23.457Z,6.3
2023-02-01T14:50:07.705Z,6.2
2023-02-01T15:00:14.731Z,7.5
2023-02-01T15:05:07.024Z,7.0
2023-02-01T15:10:00.962Z,7.3
2023-02-01T15:15:16.300Z,7.9
2023-02-01T15:20:04.803Z,8.7
2023-02-01T15:25:05.970Z,7.8
2023-02-01T15:30:21.469Z,8.2
2023-02-01T15:40:01.009Z,7.8
2023-02-01T15:45:02.127Z,7.4
2023-02-01T15:50:06.124Z,7.9
2023-02-01T15:55:00.977Z,7.8
2023-02-01T16:00:06.530Z,7.1
2023-02-01T16:05:00.955Z,6.9
2023-02-01T16:10:00.965Z,6.5
2023-02-01T16:15:06.849Z,6.1
2023-02-01T16:20:06.063Z,6.6
2023-02-01T16:25:00.968Z,6.8
2023-02-01T16:30:06.922Z,7.6
2023-02-01T16:35:00.972Z,8.4
2023-02-01T16:40:01.026Z,8.7
2023-02-01T16:45:07.007Z,8.1
2023-02-01T16:50:06.180Z,9.4
2023-02-01T16:55:06.234Z,10.2
2023-02-01T17:00:26.403Z,9.0
2023-02-01T17:05:01.849Z,7.7
2023-02-01T17:10:01.754Z,6.5
2023-02-01T17:15:01.474Z,4.2
2023-02-01T17:20:01.965Z,1.6
2023-02-01T17:25:00.973Z,1.1
2023-02-01T17:30:02.723Z,0.7
2023-02-01T17:35:01.061Z,0.4
2023-02-01T17:45:15.962Z,0.6
2023-02-01T17:50:00.978Z,0.4
2023-02-01T17:55:01.499Z,0.5
2023-02-01T18:00:01.638Z,0.9
2023-02-01T18:05:01.587Z,1.2
2023-02-01T18:10:00.980Z,0.8
2023-02-01T18:15:10.417Z,1.0
2023-02-01T18:20:00.983Z,1.1
2023-02-01T18:25:01.453Z,1.3
2023-02-01T18:30:02.015Z,1.2
2023-02-01T18:35:01.579Z,1.6
2023-02-01T18:40:01.021Z,1.7
2023-02-01T18:45:01.680Z,1.9
2023-02-01T18:50:00.990Z,1.7
2023-02-01T18:55:01.025Z,1.9
2023-02-01T19:00:03.280Z,1.7
2023-02-01T19:05:00.998Z,1.6
2023-02-01T19:10:01.507Z,1.9
2023-02-01T19:15:01.890Z,1.5
2023-02-01T19:25:01.011Z,2.1
2023-02-01T19:30:02.764Z,1.9
2023-02-01T19:35:01.028Z,1.4
2023-02-01T19:40:01.118Z,1.7
2023-02-01T19:45:04.553Z,1.3
2023-02-01T19:50:01.096Z,0.5
2023-02-01T19:55:02.018Z,0.9
2023-02-01T20:00:03.256Z,0.9
2023-02-01T20:05:00.153Z,0.8
2023-02-01T20:10:00.160Z,1.2
2023-02-01T20:15:02.092Z,1.4
2023-02-01T20:20:00.177Z,1.0
2023-02-01T20:25:00.171Z,0.9
2023-02-01T20:30:01.834Z,1.0
2023-02-01T20:35:01.068Z,0.8
2023-02-01T20:45:03.127Z,1.3
2023-02-01T20:50:01.046Z,2.0
2023-02-01T20:55:01.165Z,1.9
2023-02-01T21:00:02.895Z,2.1
2023-02-01T21:10:01.065Z,1.7
2023-02-01T21:15:02.225Z,1.2
2023-02-01T21:20:01.062Z,1.0
2023-02-01T21:25:02.138Z,0.8
2023-02-01T21:30:02.593Z,0.8
2023-02-01T21:40:01.628Z,1.0
2023-02-01T21:45:01.499Z,1.6
2023-02-01T21:50:01.085Z,1.5
2023-02-01T22:00:02.477Z,1.5
2023-02-01T22:05:01.121Z,1.3
2023-02-01T22:10:01.121Z,1.0
2023-02-01T22:15:01.500Z,1.2
2023-02-01T22:20:01.105Z,1.8
2023-02-01T22:25:01.165Z,2.0
2023-02-01T22:30:01.619Z,2.2
2023-02-01T22:35:01.067Z,2.5
2023-02-01T22:40:01.120Z,3.1
2023-02-01T22:45:01.699Z,3.3
2023-02-01T22:50:01.062Z,3.5
2023-02-01T22:55:01.066Z,3.6
2023-02-01T23:00:02.087Z,3.4
2023-02-01T23:05:01.055Z,3.6
2023-02-01T23:10:01.082Z,3.4
2023-02-01T23:15:02.480Z,3.6
2023-02-01T23:20:01.069Z,3.4
2023-02-01T23:25:01.466Z,3.5
2023-02-01T23:30:02.031Z,3.2
2023-02-01T23:35:01.049Z,2.8
2023-02-01T23:40:01.125Z,2.3
2023-02-01T23:45:02.565Z,2.1
2023-02-01T23:50:01.052Z,2.0
2023-02-01T23:55:01.065Z,1.9
